KCMX/CMX METAR and TAF weather

Enter ICAO airport designator
Station Type Date Time Source
KCMX METAR 2018/04/19 12:53 UTC NOAA

KCMX 191253Z AUTO 35012KT 10SM CLR 01/M07 A3030 RMK AO2 SLP275 T00061067


Station Type Date Time Source
KCMX Decoded METAR 2018/04/19 12:53 UTC NOAA

HANCOCK HOUGHTON CTY. MEMO, MI, United States (KCMX) 47-10N 088-29W 326M
Apr 19, 2018 - 08:53 AM EDT / 2018.04.19 1253 UTC
Wind: from the N (350 degrees) at 14 MPH (12 KT):0
Visibility: 10 mile(s):0
Sky conditions: clear
Temperature: 33.1 F (0.6 C)
Windchill: 23 F (-5 C):1
Dew Point: 19.9 F (-6.7 C)
Relative Humidity: 58%
Pressure (altimeter): 30.3 in. Hg (1026 hPa)
ob: KCMX 191253Z AUTO 35012KT 10SM CLR 01/M07 A3030 RMK AO2 SLP275 T00061067
cycle: 13

Station Type Date Time Source
KCMX TAF 2018/04/19 12:22 UTC NOAA

TAF KCMX 191120Z 1912/2012 31006KT P6SM FEW250


Example: see airport list